sensor_id;sensor_type;location;lat;lon;timestamp;temperature;humidity
51661;DHT22;37741;49.748;8.490;2024-02-15T00:01:55;9.60;93.00
51661;DHT22;37741;49.748;8.490;2024-02-15T00:04:21;9.60;92.90
51661;DHT22;37741;49.748;8.490;2024-02-15T00:06:47;9.60;92.90
51661;DHT22;37741;49.748;8.490;2024-02-15T00:09:12;9.60;92.90
51661;DHT22;37741;49.748;8.490;2024-02-15T00:11:38;9.60;92.90
51661;DHT22;37741;49.748;8.490;2024-02-15T00:14:05;9.60;92.90
51661;DHT22;37741;49.748;8.490;2024-02-15T00:16:30;9.60;92.80
51661;DHT22;37741;49.748;8.490;2024-02-15T00:18:56;9.60;92.90
51661;DHT22;37741;49.748;8.490;2024-02-15T00:21:22;9.60;93.00
51661;DHT22;37741;49.748;8.490;2024-02-15T00:23:50;9.60;92.90
51661;DHT22;37741;49.748;8.490;2024-02-15T00:26:16;9.60;92.70
51661;DHT22;37741;49.748;8.490;2024-02-15T00:28:42;9.50;92.90
51661;DHT22;37741;49.748;8.490;2024-02-15T00:31:08;9.60;92.70
51661;DHT22;37741;49.748;8.490;2024-02-15T00:33:34;9.60;92.70
51661;DHT22;37741;49.748;8.490;2024-02-15T00:36:00;9.60;92.60
51661;DHT22;37741;49.748;8.490;2024-02-15T00:38:27;9.60;92.70
51661;DHT22;37741;49.748;8.490;2024-02-15T00:40:52;9.50;92.60
51661;DHT22;37741;49.748;8.490;2024-02-15T00:43:18;9.60;92.50
51661;DHT22;37741;49.748;8.490;2024-02-15T00:45:45;9.60;92.60
51661;DHT22;37741;49.748;8.490;2024-02-15T00:48:11;9.60;92.60
51661;DHT22;37741;49.748;8.490;2024-02-15T00:50:36;9.50;92.40
51661;DHT22;37741;49.748;8.490;2024-02-15T00:53:02;9.60;92.40
51661;DHT22;37741;49.748;8.490;2024-02-15T00:55:28;9.60;92.70
51661;DHT22;37741;49.748;8.490;2024-02-15T00:57:54;9.60;92.60
51661;DHT22;37741;49.748;8.490;2024-02-15T01:00:19;9.50;92.90
51661;DHT22;37741;49.748;8.490;2024-02-15T01:02:46;9.50;92.60
51661;DHT22;37741;49.748;8.490;2024-02-15T01:05:12;9.60;93.00
51661;DHT22;37741;49.748;8.490;2024-02-15T01:07:41;9.60;92.80
51661;DHT22;37741;49.748;8.490;2024-02-15T01:10:07;9.60;92.90
51661;DHT22;37741;49.748;8.490;2024-02-15T01:12:33;9.60;92.90
51661;DHT22;37741;49.748;8.490;2024-02-15T01:14:59;9.60;92.90
51661;DHT22;37741;49.748;8.490;2024-02-15T01:17:24;9.50;93.30
51661;DHT22;37741;49.748;8.490;2024-02-15T01:19:50;9.60;93.00
51661;DHT22;37741;49.748;8.490;2024-02-15T01:22:16;9.60;93.30
51661;DHT22;37741;49.748;8.490;2024-02-15T01:24:42;9.60;93.00
51661;DHT22;37741;49.748;8.490;2024-02-15T01:27:07;9.60;93.30
51661;DHT22;37741;49.748;8.490;2024-02-15T01:29:35;9.50;92.90
51661;DHT22;37741;49.748;8.490;2024-02-15T01:32:00;9.60;93.00
51661;DHT22;37741;49.748;8.490;2024-02-15T01:34:28;9.50;93.10
51661;DHT22;37741;49.748;8.490;2024-02-15T01:36:53;9.50;93.00
51661;DHT22;37741;49.748;8.490;2024-02-15T01:39:19;9.50;92.90
51661;DHT22;37741;49.748;8.490;2024-02-15T01:41:48;9.50;93.10
51661;DHT22;37741;49.748;8.490;2024-02-15T01:44:18;9.60;93.00
51661;DHT22;37741;49.748;8.490;2024-02-15T01:46:45;9.60;92.90
51661;DHT22;37741;49.748;8.490;2024-02-15T01:49:13;9.50;92.60
51661;DHT22;37741;49.748;8.490;2024-02-15T01:51:39;9.60;92.90
51661;DHT22;37741;49.748;8.490;2024-02-15T01:54:09;9.50;92.60
51661;DHT22;37741;49.748;8.490;2024-02-15T01:56:35;9.50;92.60
51661;DHT22;37741;49.748;8.490;2024-02-15T01:59:02;9.60;92.50
51661;DHT22;37741;49.748;8.490;2024-02-15T02:01:30;9.60;92.90
51661;DHT22;37741;49.748;8.490;2024-02-15T02:03:58;9.50;92.50
51661;DHT22;37741;49.748;8.490;2024-02-15T02:06:24;9.50;93.00
51661;DHT22;37741;49.748;8.490;2024-02-15T02:08:50;9.50;92.60
51661;DHT22;37741;49.748;8.490;2024-02-15T02:11:15;9.50;92.50
51661;DHT22;37741;49.748;8.490;2024-02-15T02:13:41;9.50;92.50
51661;DHT22;37741;49.748;8.490;2024-02-15T02:16:24;9.50;92.50
51661;DHT22;37741;49.748;8.490;2024-02-15T02:18:51;9.50;92.70
51661;DHT22;37741;49.748;8.490;2024-02-15T02:21:17;9.50;93.00
51661;DHT22;37741;49.748;8.490;2024-02-15T02:23:43;9.50;93.00
51661;DHT22;37741;49.748;8.490;2024-02-15T02:26:12;9.50;93.10
51661;DHT22;37741;49.748;8.490;2024-02-15T02:28:38;9.50;92.80
51661;DHT22;37741;49.748;8.490;2024-02-15T02:31:03;9.50;92.80
51661;DHT22;37741;49.748;8.490;2024-02-15T02:33:29;9.50;93.10
51661;DHT22;37741;49.748;8.490;2024-02-15T02:35:54;9.50;93.10
51661;DHT22;37741;49.748;8.490;2024-02-15T02:38:22;9.50;93.40
51661;DHT22;37741;49.748;8.490;2024-02-15T02:40:52;9.50;93.00
51661;DHT22;37741;49.748;8.490;2024-02-15T02:43:18;9.50;93.00
51661;DHT22;37741;49.748;8.490;2024-02-15T02:45:43;9.50;92.90
51661;DHT22;37741;49.748;8.490;2024-02-15T02:48:10;9.50;93.00
51661;DHT22;37741;49.748;8.490;2024-02-15T02:50:37;9.50;93.10
51661;DHT22;37741;49.748;8.490;2024-02-15T02:53:03;9.50;93.10
51661;DHT22;37741;49.748;8.490;2024-02-15T02:55:30;9.50;93.10
51661;DHT22;37741;49.748;8.490;2024-02-15T02:57:56;9.50;93.10
51661;DHT22;37741;49.748;8.490;2024-02-15T03:00:22;9.50;93.10
51661;DHT22;37741;49.748;8.490;2024-02-15T03:02:48;9.50;93.10
51661;DHT22;37741;49.748;8.490;2024-02-15T03:05:13;9.50;93.30
51661;DHT22;37741;49.748;8.490;2024-02-15T03:07:40;9.50;93.20
51661;DHT22;37741;49.748;8.490;2024-02-15T03:10:10;9.50;93.00
51661;DHT22;37741;49.748;8.490;2024-02-15T03:12:39;9.50;93.00
51661;DHT22;37741;49.748;8.490;2024-02-15T03:15:06;9.50;92.70
51661;DHT22;37741;49.748;8.490;2024-02-15T03:17:42;9.50;93.20
51661;DHT22;37741;49.748;8.490;2024-02-15T03:20:09;9.50;93.10
51661;DHT22;37741;49.748;8.490;2024-02-15T03:22:56;9.50;93.20
51661;DHT22;37741;49.748;8.490;2024-02-15T03:25:22;9.50;93.10
51661;DHT22;37741;49.748;8.490;2024-02-15T03:27:52;9.50;92.80
51661;DHT22;37741;49.748;8.490;2024-02-15T03:30:19;9.50;93.10
51661;DHT22;37741;49.748;8.490;2024-02-15T03:32:46;9.50;93.40
51661;DHT22;37741;49.748;8.490;2024-02-15T03:35:14;9.50;93.00
51661;DHT22;37741;49.748;8.490;2024-02-15T03:37:41;9.50;92.90
51661;DHT22;37741;49.748;8.490;2024-02-15T03:40:08;9.50;93.20
51661;DHT22;37741;49.748;8.490;2024-02-15T03:42:35;9.50;93.00
51661;DHT22;37741;49.748;8.490;2024-02-15T03:45:04;9.50;93.20
51661;DHT22;37741;49.748;8.490;2024-02-15T03:47:34;9.50;93.10
51661;DHT22;37741;49.748;8.490;2024-02-15T03:50:01;9.50;93.30
51661;DHT22;37741;49.748;8.490;2024-02-15T03:52:27;9.50;93.00
51661;DHT22;37741;49.748;8.490;2024-02-15T03:54:55;9.50;92.70
51661;DHT22;37741;49.748;8.490;2024-02-15T03:57:23;9.50;92.90
51661;DHT22;37741;49.748;8.490;2024-02-15T03:59:52;9.50;93.10
51661;DHT22;37741;49.748;8.490;2024-02-15T04:02:23;9.50;92.90
51661;DHT22;37741;49.748;8.490;2024-02-15T04:04:54;9.50;92.60
51661;DHT22;37741;49.748;8.490;2024-02-15T04:07:21;9.50;92.60
51661;DHT22;37741;49.748;8.490;2024-02-15T04:09:47;9.50;92.90
51661;DHT22;37741;49.748;8.490;2024-02-15T04:12:13;9.50;92.70
51661;DHT22;37741;49.748;8.490;2024-02-15T04:14:43;9.50;92.70
51661;DHT22;37741;49.748;8.490;2024-02-15T04:17:10;9.50;92.50
51661;DHT22;37741;49.748;8.490;2024-02-15T04:19:36;9.50;92.50
51661;DHT22;37741;49.748;8.490;2024-02-15T04:22:03;9.50;92.40
51661;DHT22;37741;49.748;8.490;2024-02-15T04:24:36;9.50;92.50
51661;DHT22;37741;49.748;8.490;2024-02-15T04:27:09;9.50;92.50
51661;DHT22;37741;49.748;8.490;2024-02-15T04:29:42;9.50;92.50
51661;DHT22;37741;49.748;8.490;2024-02-15T04:32:10;9.50;92.40
51661;DHT22;37741;49.748;8.490;2024-02-15T04:34:42;9.50;92.50
51661;DHT22;37741;49.748;8.490;2024-02-15T04:37:08;9.50;92.50
51661;DHT22;37741;49.748;8.490;2024-02-15T04:39:34;9.50;92.50
51661;DHT22;37741;49.748;8.490;2024-02-15T04:42:01;9.50;92.70
51661;DHT22;37741;49.748;8.490;2024-02-15T04:44:27;9.50;92.80
51661;DHT22;37741;49.748;8.490;2024-02-15T04:46:53;9.50;92.60
51661;DHT22;37741;49.748;8.490;2024-02-15T04:49:20;9.50;92.50
51661;DHT22;37741;49.748;8.490;2024-02-15T04:51:46;9.50;92.60
51661;DHT22;37741;49.748;8.490;2024-02-15T04:54:13;9.50;92.70
51661;DHT22;37741;49.748;8.490;2024-02-15T04:56:42;9.50;92.60
51661;DHT22;37741;49.748;8.490;2024-02-15T04:59:11;9.50;92.70
51661;DHT22;37741;49.748;8.490;2024-02-15T05:01:40;9.50;92.40
51661;DHT22;37741;49.748;8.490;2024-02-15T05:04:08;9.50;92.70
51661;DHT22;37741;49.748;8.490;2024-02-15T05:06:33;9.50;92.70
51661;DHT22;37741;49.748;8.490;2024-02-15T05:08:59;9.50;92.80
51661;DHT22;37741;49.748;8.490;2024-02-15T05:11:25;9.50;92.50
51661;DHT22;37741;49.748;8.490;2024-02-15T05:13:51;9.50;92.50
51661;DHT22;37741;49.748;8.490;2024-02-15T05:16:18;9.50;92.60
51661;DHT22;37741;49.748;8.490;2024-02-15T05:18:44;9.50;92.60
51661;DHT22;37741;49.748;8.490;2024-02-15T05:21:13;9.50;92.60
51661;DHT22;37741;49.748;8.490;2024-02-15T05:23:39;9.50;92.70
51661;DHT22;37741;49.748;8.490;2024-02-15T05:26:09;9.50;92.90
51661;DHT22;37741;49.748;8.490;2024-02-15T05:28:34;9.50;92.80
51661;DHT22;37741;49.748;8.490;2024-02-15T05:31:20;9.50;92.80
51661;DHT22;37741;49.748;8.490;2024-02-15T05:33:53;9.50;92.90
51661;DHT22;37741;49.748;8.490;2024-02-15T05:36:20;9.50;92.80
51661;DHT22;37741;49.748;8.490;2024-02-15T05:38:53;9.50;92.70
51661;DHT22;37741;49.748;8.490;2024-02-15T05:41:20;9.50;92.60
51661;DHT22;37741;49.748;8.490;2024-02-15T05:43:46;9.50;92.60
51661;DHT22;37741;49.748;8.490;2024-02-15T05:46:14;9.50;92.70
51661;DHT22;37741;49.748;8.490;2024-02-15T05:48:40;9.50;92.70
51661;DHT22;37741;49.748;8.490;2024-02-15T05:51:07;9.50;92.70
51661;DHT22;37741;49.748;8.490;2024-02-15T05:53:34;9.50;92.60
51661;DHT22;37741;49.748;8.490;2024-02-15T05:56:07;9.50;92.60
51661;DHT22;37741;49.748;8.490;2024-02-15T05:58:34;9.50;92.40
51661;DHT22;37741;49.748;8.490;2024-02-15T06:01:01;9.50;92.60
51661;DHT22;37741;49.748;8.490;2024-02-15T06:03:31;9.50;92.90
51661;DHT22;37741;49.748;8.490;2024-02-15T06:06:01;9.50;92.70
51661;DHT22;37741;49.748;8.490;2024-02-15T06:08:32;9.50;92.70
51661;DHT22;37741;49.748;8.490;2024-02-15T06:10:57;9.50;93.00
51661;DHT22;37741;49.748;8.490;2024-02-15T06:13:23;9.60;92.80
51661;DHT22;37741;49.748;8.490;2024-02-15T06:15:50;9.50;92.90
51661;DHT22;37741;49.748;8.490;2024-02-15T06:18:18;9.50;92.60
51661;DHT22;37741;49.748;8.490;2024-02-15T06:20:47;9.50;92.60
51661;DHT22;37741;49.748;8.490;2024-02-15T06:23:15;9.50;92.90
51661;DHT22;37741;49.748;8.490;2024-02-15T06:25:41;9.50;92.70
51661;DHT22;37741;49.748;8.490;2024-02-15T06:28:07;9.50;92.90
51661;DHT22;37741;49.748;8.490;2024-02-15T06:30:47;9.50;92.70
51661;DHT22;37741;49.748;8.490;2024-02-15T06:33:32;9.50;92.80
51661;DHT22;37741;49.748;8.490;2024-02-15T06:36:16;9.50;92.90
51661;DHT22;37741;49.748;8.490;2024-02-15T06:39:00;9.50;92.70
51661;DHT22;37741;49.748;8.490;2024-02-15T06:41:44;9.50;92.80
51661;DHT22;37741;49.748;8.490;2024-02-15T06:44:10;9.50;92.70
51661;DHT22;37741;49.748;8.490;2024-02-15T06:46:35;9.50;92.70
51661;DHT22;37741;49.748;8.490;2024-02-15T06:49:01;9.50;92.80
51661;DHT22;37741;49.748;8.490;2024-02-15T06:51:28;9.50;92.70
51661;DHT22;37741;49.748;8.490;2024-02-15T06:53:53;9.50;92.60
51661;DHT22;37741;49.748;8.490;2024-02-15T06:56:21;9.50;92.60
51661;DHT22;37741;49.748;8.490;2024-02-15T06:58:47;9.50;92.40
51661;DHT22;37741;49.748;8.490;2024-02-15T07:01:14;9.50;92.70
51661;DHT22;37741;49.748;8.490;2024-02-15T07:03:44;9.50;92.50
51661;DHT22;37741;49.748;8.490;2024-02-15T07:06:11;9.50;92.60
51661;DHT22;37741;49.748;8.490;2024-02-15T07:08:39;9.50;92.60
51661;DHT22;37741;49.748;8.490;2024-02-15T07:11:06;9.50;92.50
51661;DHT22;37741;49.748;8.490;2024-02-15T07:13:35;9.50;92.60
51661;DHT22;37741;49.748;8.490;2024-02-15T07:16:01;9.50;92.70
51661;DHT22;37741;49.748;8.490;2024-02-15T07:18:27;9.50;92.70
51661;DHT22;37741;49.748;8.490;2024-02-15T07:20:53;9.50;92.60
51661;DHT22;37741;49.748;8.490;2024-02-15T07:23:18;9.50;92.60
51661;DHT22;37741;49.748;8.490;2024-02-15T07:25:44;9.50;92.80
51661;DHT22;37741;49.748;8.490;2024-02-15T07:28:14;9.50;92.70
51661;DHT22;37741;49.748;8.490;2024-02-15T07:30:39;9.50;92.70
51661;DHT22;37741;49.748;8.490;2024-02-15T07:33:05;9.60;92.70
51661;DHT22;37741;49.748;8.490;2024-02-15T07:35:32;9.60;92.70
51661;DHT22;37741;49.748;8.490;2024-02-15T07:37:58;9.50;92.60
51661;DHT22;37741;49.748;8.490;2024-02-15T07:40:26;9.60;92.70
51661;DHT22;37741;49.748;8.490;2024-02-15T07:42:56;9.60;92.90
51661;DHT22;37741;49.748;8.490;2024-02-15T07:45:23;9.60;92.90
51661;DHT22;37741;49.748;8.490;2024-02-15T07:47:48;9.60;92.80
51661;DHT22;37741;49.748;8.490;2024-02-15T07:50:18;9.50;92.70
51661;DHT22;37741;49.748;8.490;2024-02-15T07:52:49;9.60;92.90
51661;DHT22;37741;49.748;8.490;2024-02-15T07:55:15;9.60;92.90
51661;DHT22;37741;49.748;8.490;2024-02-15T07:57:41;9.60;92.90
51661;DHT22;37741;49.748;8.490;2024-02-15T08:00:07;9.60;93.10
51661;DHT22;37741;49.748;8.490;2024-02-15T08:02:39;9.60;93.00
51661;DHT22;37741;49.748;8.490;2024-02-15T08:05:09;9.60;93.10
51661;DHT22;37741;49.748;8.490;2024-02-15T08:07:45;9.60;93.10
51661;DHT22;37741;49.748;8.490;2024-02-15T08:10:12;9.60;93.20
51661;DHT22;37741;49.748;8.490;2024-02-15T08:12:45;9.60;93.30
51661;DHT22;37741;49.748;8.490;2024-02-15T08:15:12;9.60;93.30
51661;DHT22;37741;49.748;8.490;2024-02-15T08:17:44;9.60;93.20
51661;DHT22;37741;49.748;8.490;2024-02-15T08:20:12;9.70;93.30
51661;DHT22;37741;49.748;8.490;2024-02-15T08:22:39;9.60;93.30
51661;DHT22;37741;49.748;8.490;2024-02-15T08:25:10;9.70;93.30
51661;DHT22;37741;49.748;8.490;2024-02-15T08:27:39;9.60;93.30
51661;DHT22;37741;49.748;8.490;2024-02-15T08:30:10;9.70;93.30
51661;DHT22;37741;49.748;8.490;2024-02-15T08:32:39;9.70;93.20
51661;DHT22;37741;49.748;8.490;2024-02-15T08:35:08;9.70;93.20
51661;DHT22;37741;49.748;8.490;2024-02-15T08:37:35;9.70;93.30
51661;DHT22;37741;49.748;8.490;2024-02-15T08:40:04;9.70;93.30
51661;DHT22;37741;49.748;8.490;2024-02-15T08:42:41;9.70;93.20
51661;DHT22;37741;49.748;8.490;2024-02-15T08:45:08;9.70;93.10
51661;DHT22;37741;49.748;8.490;2024-02-15T08:47:38;9.80;93.20
51661;DHT22;37741;49.748;8.490;2024-02-15T08:50:05;9.80;93.20
51661;DHT22;37741;49.748;8.490;2024-02-15T08:52:31;9.80;93.20
51661;DHT22;37741;49.748;8.490;2024-02-15T08:54:57;9.80;93.20
51661;DHT22;37741;49.748;8.490;2024-02-15T08:57:24;9.80;93.20
51661;DHT22;37741;49.748;8.490;2024-02-15T08:59:51;9.80;93.10
51661;DHT22;37741;49.748;8.490;2024-02-15T09:02:17;9.80;93.20
51661;DHT22;37741;49.748;8.490;2024-02-15T09:04:43;9.90;93.20
51661;DHT22;37741;49.748;8.490;2024-02-15T09:07:09;9.90;93.20
51661;DHT22;37741;49.748;8.490;2024-02-15T09:09:35;9.80;93.10
51661;DHT22;37741;49.748;8.490;2024-02-15T09:12:02;9.90;93.40
51661;DHT22;37741;49.748;8.490;2024-02-15T09:14:35;9.90;93.10
51661;DHT22;37741;49.748;8.490;2024-02-15T09:17:02;9.90;93.10
51661;DHT22;37741;49.748;8.490;2024-02-15T09:19:36;9.90;93.10
51661;DHT22;37741;49.748;8.490;2024-02-15T09:22:02;9.90;93.10
51661;DHT22;37741;49.748;8.490;2024-02-15T09:24:32;10.00;93.10
51661;DHT22;37741;49.748;8.490;2024-02-15T09:26:59;10.00;93.10
51661;DHT22;37741;49.748;8.490;2024-02-15T09:29:27;10.00;93.10
51661;DHT22;37741;49.748;8.490;2024-02-15T09:31:53;10.00;93.10
51661;DHT22;37741;49.748;8.490;2024-02-15T09:34:18;10.10;93.10
51661;DHT22;37741;49.748;8.490;2024-02-15T09:36:44;10.10;93.10
51661;DHT22;37741;49.748;8.490;2024-02-15T09:39:11;10.10;93.10
51661;DHT22;37741;49.748;8.490;2024-02-15T09:41:39;10.10;93.20
51661;DHT22;37741;49.748;8.490;2024-02-15T09:44:05;10.10;93.20
51661;DHT22;37741;49.748;8.490;2024-02-15T09:46:35;10.20;93.10
51661;DHT22;37741;49.748;8.490;2024-02-15T09:49:01;10.10;93.20
51661;DHT22;37741;49.748;8.490;2024-02-15T09:51:29;10.20;93.10
51661;DHT22;37741;49.748;8.490;2024-02-15T09:53:58;10.20;93.00
51661;DHT22;37741;49.748;8.490;2024-02-15T09:56:26;10.20;93.10
51661;DHT22;37741;49.748;8.490;2024-02-15T09:58:54;10.30;93.10
51661;DHT22;37741;49.748;8.490;2024-02-15T10:01:22;10.30;93.10
51661;DHT22;37741;49.748;8.490;2024-02-15T10:03:49;10.30;93.10
51661;DHT22;37741;49.748;8.490;2024-02-15T10:06:19;10.30;93.00
51661;DHT22;37741;49.748;8.490;2024-02-15T10:08:45;10.30;93.10
51661;DHT22;37741;49.748;8.490;2024-02-15T10:11:12;10.30;93.10
51661;DHT22;37741;49.748;8.490;2024-02-15T10:13:38;10.40;93.00
51661;DHT22;37741;49.748;8.490;2024-02-15T10:16:18;10.40;93.10
51661;DHT22;37741;49.748;8.490;2024-02-15T10:18:45;10.40;93.30
51661;DHT22;37741;49.748;8.490;2024-02-15T10:21:24;10.40;93.00
51661;DHT22;37741;49.748;8.490;2024-02-15T10:26:30;10.50;93.00
51661;DHT22;37741;49.748;8.490;2024-02-15T10:29:08;10.50;93.00
51661;DHT22;37741;49.748;8.490;2024-02-15T10:31:35;10.50;92.90
51661;DHT22;37741;49.748;8.490;2024-02-15T10:34:06;10.50;92.90
51661;DHT22;37741;49.748;8.490;2024-02-15T10:36:33;10.60;92.80
51661;DHT22;37741;49.748;8.490;2024-02-15T10:39:18;10.60;92.80
51661;DHT22;37741;49.748;8.490;2024-02-15T10:41:49;10.60;92.80
51661;DHT22;37741;49.748;8.490;2024-02-15T10:44:20;10.60;92.80
51661;DHT22;37741;49.748;8.490;2024-02-15T10:46:47;10.70;92.80
51661;DHT22;37741;49.748;8.490;2024-02-15T10:51:50;10.70;92.90
51661;DHT22;37741;49.748;8.490;2024-02-15T10:54:24;10.70;92.90
51661;DHT22;37741;49.748;8.490;2024-02-15T10:56:54;10.70;92.70
51661;DHT22;37741;49.748;8.490;2024-02-15T10:59:24;10.80;92.80
51661;DHT22;37741;49.748;8.490;2024-02-15T11:01:59;10.80;92.70
51661;DHT22;37741;49.748;8.490;2024-02-15T11:04:27;10.80;92.80
51661;DHT22;37741;49.748;8.490;2024-02-15T11:06:58;10.90;92.70
51661;DHT22;37741;49.748;8.490;2024-02-15T11:09:25;10.90;92.60
51661;DHT22;37741;49.748;8.490;2024-02-15T11:11:54;10.90;92.60
51661;DHT22;37741;49.748;8.490;2024-02-15T11:14:25;11.00;92.50
51661;DHT22;37741;49.748;8.490;2024-02-15T11:16:52;11.00;92.50
51661;DHT22;37741;49.748;8.490;2024-02-15T11:19:45;11.00;92.30
51661;DHT22;37741;49.748;8.490;2024-02-15T11:22:16;11.10;92.30
51661;DHT22;37741;49.748;8.490;2024-02-15T11:24:47;11.10;92.40
51661;DHT22;37741;49.748;8.490;2024-02-15T11:27:24;11.10;92.30
51661;DHT22;37741;49.748;8.490;2024-02-15T11:29:57;11.10;92.20
51661;DHT22;37741;49.748;8.490;2024-02-15T11:32:48;11.20;92.20
51661;DHT22;37741;49.748;8.490;2024-02-15T11:35:25;11.20;92.10
51661;DHT22;37741;49.748;8.490;2024-02-15T11:37:57;11.20;92.10
51661;DHT22;37741;49.748;8.490;2024-02-15T11:41:17;11.30;92.00
51661;DHT22;37741;49.748;8.490;2024-02-15T11:46:14;11.30;91.90
51661;DHT22;37741;49.748;8.490;2024-02-15T11:48:40;11.40;91.80
51661;DHT22;37741;49.748;8.490;2024-02-15T11:51:06;11.40;91.80
51661;DHT22;37741;49.748;8.490;2024-02-15T11:53:33;11.40;91.70
51661;DHT22;37741;49.748;8.490;2024-02-15T11:56:01;11.40;91.60
51661;DHT22;37741;49.748;8.490;2024-02-15T11:58:30;11.50;91.60
51661;DHT22;37741;49.748;8.490;2024-02-15T12:01:08;11.50;91.60
51661;DHT22;37741;49.748;8.490;2024-02-15T12:03:54;11.50;91.60
51661;DHT22;37741;49.748;8.490;2024-02-15T12:06:39;11.60;91.50
51661;DHT22;37741;49.748;8.490;2024-02-15T12:09:23;11.60;91.50
51661;DHT22;37741;49.748;8.490;2024-02-15T12:12:10;11.60;91.40
51661;DHT22;37741;49.748;8.490;2024-02-15T12:15:01;11.70;91.30
51661;DHT22;37741;49.748;8.490;2024-02-15T12:17:45;11.70;91.20
51661;DHT22;37741;49.748;8.490;2024-02-15T12:20:29;11.70;91.10
51661;DHT22;37741;49.748;8.490;2024-02-15T12:22:57;11.80;91.10
51661;DHT22;37741;49.748;8.490;2024-02-15T12:25:25;11.90;91.00
51661;DHT22;37741;49.748;8.490;2024-02-15T12:27:54;11.90;91.00
51661;DHT22;37741;49.748;8.490;2024-02-15T12:30:20;11.90;91.00
51661;DHT22;37741;49.748;8.490;2024-02-15T12:32:50;11.90;91.00
51661;DHT22;37741;49.748;8.490;2024-02-15T12:35:21;12.00;90.90
51661;DHT22;37741;49.748;8.490;2024-02-15T12:40:35;12.00;90.70
51661;DHT22;37741;49.748;8.490;2024-02-15T12:43:01;12.00;90.70
51661;DHT22;37741;49.748;8.490;2024-02-15T12:45:28;12.10;90.70
51661;DHT22;37741;49.748;8.490;2024-02-15T12:47:55;12.10;90.60
51661;DHT22;37741;49.748;8.490;2024-02-15T12:50:23;12.10;90.60
51661;DHT22;37741;49.748;8.490;2024-02-15T12:52:50;12.20;90.60
51661;DHT22;37741;49.748;8.490;2024-02-15T12:55:19;12.20;90.60
51661;DHT22;37741;49.748;8.490;2024-02-15T12:57:51;12.20;90.60
51661;DHT22;37741;49.748;8.490;2024-02-15T13:00:26;12.20;90.40
51661;DHT22;37741;49.748;8.490;2024-02-15T13:02:57;12.20;90.40
51661;DHT22;37741;49.748;8.490;2024-02-15T13:05:26;12.30;90.30
51661;DHT22;37741;49.748;8.490;2024-02-15T13:07:53;12.30;90.20
51661;DHT22;37741;49.748;8.490;2024-02-15T13:10:23;12.30;90.20
51661;DHT22;37741;49.748;8.490;2024-02-15T13:12:52;12.40;90.20
51661;DHT22;37741;49.748;8.490;2024-02-15T13:15:18;12.40;90.20
51661;DHT22;37741;49.748;8.490;2024-02-15T13:17:47;12.40;90.20
51661;DHT22;37741;49.748;8.490;2024-02-15T13:20:23;12.40;90.10
51661;DHT22;37741;49.748;8.490;2024-02-15T13:23:06;12.50;90.10
51661;DHT22;37741;49.748;8.490;2024-02-15T13:25:35;12.50;90.00
51661;DHT22;37741;49.748;8.490;2024-02-15T13:28:02;12.50;89.90
51661;DHT22;37741;49.748;8.490;2024-02-15T13:30:29;12.50;89.70
51661;DHT22;37741;49.748;8.490;2024-02-15T13:32:56;12.60;89.80
51661;DHT22;37741;49.748;8.490;2024-02-15T13:35:21;12.60;89.50
51661;DHT22;37741;49.748;8.490;2024-02-15T13:37:52;12.60;89.20
51661;DHT22;37741;49.748;8.490;2024-02-15T13:40:20;12.60;89.10
51661;DHT22;37741;49.748;8.490;2024-02-15T13:42:50;12.60;88.80
51661;DHT22;37741;49.748;8.490;2024-02-15T13:45:23;12.60;88.50
51661;DHT22;37741;49.748;8.490;2024-02-15T13:47:50;12.70;88.50
51661;DHT22;37741;49.748;8.490;2024-02-15T13:50:17;12.70;88.30
51661;DHT22;37741;49.748;8.490;2024-02-15T13:52:45;12.70;88.00
51661;DHT22;37741;49.748;8.490;2024-02-15T13:55:16;12.70;87.90
51661;DHT22;37741;49.748;8.490;2024-02-15T13:57:44;12.70;88.00
51661;DHT22;37741;49.748;8.490;2024-02-15T14:00:14;12.70;88.10
51661;DHT22;37741;49.748;8.490;2024-02-15T14:02:57;12.80;87.90
51661;DHT22;37741;49.748;8.490;2024-02-15T14:05:25;12.80;87.80
51661;DHT22;37741;49.748;8.490;2024-02-15T14:07:55;12.80;87.70
51661;DHT22;37741;49.748;8.490;2024-02-15T14:10:22;12.80;87.70
51661;DHT22;37741;49.748;8.490;2024-02-15T14:12:49;12.80;87.80
51661;DHT22;37741;49.748;8.490;2024-02-15T14:15:15;12.80;87.80
51661;DHT22;37741;49.748;8.490;2024-02-15T14:17:42;12.90;87.50
51661;DHT22;37741;49.748;8.490;2024-02-15T14:20:10;12.90;87.30
51661;DHT22;37741;49.748;8.490;2024-02-15T14:22:39;12.90;87.40
51661;DHT22;37741;49.748;8.490;2024-02-15T14:25:06;13.00;87.50
51661;DHT22;37741;49.748;8.490;2024-02-15T14:27:32;13.00;87.50
51661;DHT22;37741;49.748;8.490;2024-02-15T14:29:58;13.00;87.50
51661;DHT22;37741;49.748;8.490;2024-02-15T14:32:45;13.00;88.00
51661;DHT22;37741;49.748;8.490;2024-02-15T14:35:36;13.00;87.20
51661;DHT22;37741;49.748;8.490;2024-02-15T14:38:05;13.10;87.20
51661;DHT22;37741;49.748;8.490;2024-02-15T14:40:33;13.00;88.00
51661;DHT22;37741;49.748;8.490;2024-02-15T14:42:58;13.10;87.40
51661;DHT22;37741;49.748;8.490;2024-02-15T14:45:25;13.10;87.40
51661;DHT22;37741;49.748;8.490;2024-02-15T14:47:51;13.10;87.10
51661;DHT22;37741;49.748;8.490;2024-02-15T14:50:17;13.10;87.30
51661;DHT22;37741;49.748;8.490;2024-02-15T14:52:43;13.10;87.40
51661;DHT22;37741;49.748;8.490;2024-02-15T14:55:11;13.10;87.40
51661;DHT22;37741;49.748;8.490;2024-02-15T14:57:37;13.10;87.50
51661;DHT22;37741;49.748;8.490;2024-02-15T15:00:07;13.10;87.60
51661;DHT22;37741;49.748;8.490;2024-02-15T15:02:40;13.10;87.80
51661;DHT22;37741;49.748;8.490;2024-02-15T15:05:08;13.10;87.80
51661;DHT22;37741;49.748;8.490;2024-02-15T15:07:52;13.10;88.00
51661;DHT22;37741;49.748;8.490;2024-02-15T15:10:36;13.10;88.00
51661;DHT22;37741;49.748;8.490;2024-02-15T15:13:20;13.10;87.90
51661;DHT22;37741;49.748;8.490;2024-02-15T15:15:46;13.10;87.90
51661;DHT22;37741;49.748;8.490;2024-02-15T15:18:13;13.10;87.90
51661;DHT22;37741;49.748;8.490;2024-02-15T15:20:39;13.10;87.70
51661;DHT22;37741;49.748;8.490;2024-02-15T15:23:05;13.10;87.70
51661;DHT22;37741;49.748;8.490;2024-02-15T15:25:33;13.10;87.70
51661;DHT22;37741;49.748;8.490;2024-02-15T15:27:58;13.10;87.60
51661;DHT22;37741;49.748;8.490;2024-02-15T15:30:27;13.20;87.50
51661;DHT22;37741;49.748;8.490;2024-02-15T15:32:52;13.20;87.70
51661;DHT22;37741;49.748;8.490;2024-02-15T15:35:18;13.10;87.70
51661;DHT22;37741;49.748;8.490;2024-02-15T15:37:44;13.10;87.60
51661;DHT22;37741;49.748;8.490;2024-02-15T15:40:11;13.10;87.70
51661;DHT22;37741;49.748;8.490;2024-02-15T15:42:41;13.10;87.40
51661;DHT22;37741;49.748;8.490;2024-02-15T15:45:07;13.10;87.50
51661;DHT22;37741;49.748;8.490;2024-02-15T15:47:34;13.10;87.80
51661;DHT22;37741;49.748;8.490;2024-02-15T15:50:00;13.20;87.90
51661;DHT22;37741;49.748;8.490;2024-02-15T15:52:25;13.20;87.70
51661;DHT22;37741;49.748;8.490;2024-02-15T15:54:51;13.20;87.50
51661;DHT22;37741;49.748;8.490;2024-02-15T15:57:17;13.20;87.10
51661;DHT22;37741;49.748;8.490;2024-02-15T15:59:42;13.20;86.80
51661;DHT22;37741;49.748;8.490;2024-02-15T16:02:09;13.20;87.00